Time;durP1;ratioP1;P1;durP2;ratioP2;P2;SDS_P1;SDS_P2;PMS_P1;PMS_P2;Temp;Humidity;BMP_temperature;BMP_pressure;BME280_temperature;BME280_humidity;BME280_pressure;Samples;Min_cycle;Max_cycle;Signal;HPM_P1;HPM_P2
2022/08/10 00:02:15;;;;;;;4.57;1.30;;;18.80;99.90;;;;;;12327578;28;20058;-37
2022/08/10 00:08:17;;;;;;;3.22;1.20;;;18.90;99.90;;;;;;12330678;28;20091;-38
2022/08/10 00:14:24;;;;;;;2.70;1.40;;;18.80;99.90;;;;;;12336515;28;20101;-34
2022/08/10 00:20:26;;;;;;;2.95;1.38;;;18.60;99.90;;;;;;12338800;28;20046;-38
2022/08/10 00:26:28;;;;;;;5.05;1.50;;;18.70;99.90;;;;;;12333339;28;20129;-34
2022/08/10 00:32:50;;;;;;;6.70;1.60;;;18.90;99.90;;;;;;12326688;28;20047;-34
2022/08/10 00:38:52;;;;;;;5.93;1.60;;;18.90;99.90;;;;;;12320351;28;20146;-37
2022/08/10 00:44:53;;;;;;;3.55;1.30;;;18.90;99.90;;;;;;12338142;28;20458;-34
2022/08/10 00:50:57;;;;;;;4.35;1.70;;;19.00;99.90;;;;;;12328542;28;20138;-34
2022/08/10 00:56:59;;;;;;;;;;;18.80;99.90;;;;;;12346503;28;20050;-34
2022/08/10 01:03:18;;;;;;;7.00;1.88;;;18.60;99.90;;;;;;12343845;28;20354;-34
2022/08/10 01:10:01;;;;;;;6.03;1.45;;;18.70;99.90;;;;;;12340265;28;20062;-38
2022/08/10 01:16:25;;;;;;;3.25;1.83;;;18.60;99.90;;;;;;12342724;28;20122;-38
2022/08/10 01:22:54;;;;;;;4.20;1.50;;;18.50;99.90;;;;;;12341870;28;20051;-37
2022/08/10 01:29:10;;;;;;;4.65;1.80;;;18.50;99.90;;;;;;12345817;28;20059;-38
2022/08/10 01:35:37;;;;;;;3.92;1.55;;;18.40;99.90;;;;;;12341051;28;20078;-37
2022/08/10 01:41:43;;;;;;;4.15;1.60;;;18.30;99.90;;;;;;12322353;28;20453;-33
2022/08/10 01:54:24;;;;;;;5.68;1.60;;;18.10;99.90;;;;;;12324432;28;20051;-38
2022/08/10 02:00:27;;;;;;;6.07;1.60;;;18.00;99.90;;;;;;12339861;28;20138;-37
2022/08/10 02:06:31;;;;;;;3.30;1.50;;;17.90;99.90;;;;;;12356059;28;20090;-38
2022/08/10 02:12:35;;;;;;;4.20;1.40;;;17.80;99.90;;;;;;12345845;28;20130;-33
2022/08/10 02:18:39;;;;;;;4.20;1.52;;;17.70;99.90;;;;;;12337936;28;20058;-33
2022/08/10 02:24:42;;;;;;;3.07;1.73;;;17.50;99.90;;;;;;12345409;28;20051;-33
2022/08/10 02:30:45;;;;;;;2.78;1.73;;;17.40;99.90;;;;;;12347871;28;20084;-38
2022/08/10 02:36:50;;;;;;;3.40;1.63;;;17.40;99.90;;;;;;12345837;28;20055;-33
2022/08/10 02:42:56;;;;;;;;;;;17.40;99.90;;;;;;12347130;28;20566;-38
2022/08/10 02:49:21;;;;;;;6.18;1.80;;;17.40;99.90;;;;;;12328894;28;19930;-33
2022/08/10 02:55:33;;;;;;;3.13;1.80;;;17.50;99.90;;;;;;12329933;28;20051;-37
2022/08/10 03:01:42;;;;;;;4.82;1.55;;;17.50;99.90;;;;;;12343063;28;20536;-37
2022/08/10 03:08:05;;;;;;;5.05;1.90;;;17.50;99.90;;;;;;12334740;28;20141;-34
2022/08/10 03:14:09;;;;;;;4.00;1.73;;;17.50;99.90;;;;;;12315749;28;20059;-37
2022/08/10 03:20:12;;;;;;;3.92;1.70;;;17.40;99.90;;;;;;12329292;28;20271;-38
2022/08/10 03:26:36;;;;;;;4.88;1.80;;;17.30;99.90;;;;;;12332482;28;20055;-35
2022/08/10 03:32:39;;;;;;;5.30;2.05;;;17.40;99.90;;;;;;12339114;28;20101;-37
2022/08/10 03:38:43;;;;;;;4.50;1.73;;;17.40;99.90;;;;;;12317542;28;20047;-37
2022/08/10 03:44:46;;;;;;;4.38;1.50;;;17.40;99.90;;;;;;12342302;28;20281;-33
2022/08/10 03:50:54;;;;;;;5.50;1.60;;;17.30;99.90;;;;;;12324053;28;20142;-33
2022/08/10 03:56:56;;;;;;;6.10;1.80;;;17.20;99.90;;;;;;12342475;28;20085;-37
2022/08/10 04:02:58;;;;;;;4.43;2.00;;;17.10;99.90;;;;;;12338357;28;20051;-38
2022/08/10 04:09:02;;;;;;;4.75;1.50;;;17.00;99.90;;;;;;12321329;28;20050;-38
2022/08/10 04:15:04;;;;;;;4.00;1.57;;;16.90;99.90;;;;;;12331299;28;20105;-33
2022/08/10 04:21:17;;;;;;;4.55;1.67;;;16.90;99.90;;;;;;12337852;28;20062;-33
2022/08/10 04:27:19;;;;;;;6.07;1.80;;;16.80;99.90;;;;;;12340096;28;20141;-37
2022/08/10 04:33:23;;;;;;;3.85;1.45;;;16.80;99.90;;;;;;12339564;28;20058;-34
2022/08/10 04:39:24;;;;;;;3.30;1.70;;;16.70;99.90;;;;;;12321743;28;20094;-37
2022/08/10 04:45:26;;;;;;;4.03;1.58;;;16.70;99.90;;;;;;12332149;28;20083;-38
2022/08/10 04:51:49;;;;;;;3.95;1.50;;;16.80;99.90;;;;;;12330430;28;20051;-37
2022/08/10 04:57:51;;;;;;;3.83;1.90;;;16.80;99.90;;;;;;12335390;28;20062;-33
2022/08/10 05:03:53;;;;;;;6.13;1.85;;;16.80;99.90;;;;;;12335389;28;20054;-33
2022/08/10 05:10:15;;;;;;;3.70;1.75;;;16.90;99.90;;;;;;12349226;28;20062;-37
2022/08/10 05:16:17;;;;;;;7.15;2.08;;;17.00;99.90;;;;;;12327139;28;20047;-33
2022/08/10 05:22:41;;;;;;;3.78;1.80;;;17.00;99.90;;;;;;12347322;28;20126;-37
2022/08/10 05:28:42;;;;;;;6.43;1.90;;;17.00;99.90;;;;;;12341220;28;20054;-33
2022/08/10 05:34:44;;;;;;;3.47;1.80;;;17.00;99.90;;;;;;12344385;28;20050;-33
2022/08/10 05:40:47;;;;;;;3.22;1.90;;;17.00;99.90;;;;;;12336729;28;20047;-39
2022/08/10 05:46:50;;;;;;;5.17;2.37;;;17.00;99.90;;;;;;12344332;28;20059;-37
2022/08/10 05:52:53;;;;;;;4.10;1.90;;;17.10;99.90;;;;;;12340984;28;20054;-39
2022/08/10 05:58:54;;;;;;;6.18;2.13;;;17.10;99.90;;;;;;12333525;28;20104;-33
2022/08/10 06:05:02;;;;;;;2.80;1.83;;;17.20;99.90;;;;;;12331484;28;20051;-39
2022/08/10 06:11:05;;;;;;;6.35;1.70;;;17.30;99.90;;;;;;12333310;28;20058;-34
2022/08/10 06:17:30;;;;;;;3.75;1.58;;;17.40;99.90;;;;;;12279276;28;20044;-37
2022/08/10 06:23:34;;;;;;;3.03;1.60;;;17.50;99.90;;;;;;12298279;28;20495;-33
2022/08/10 06:29:39;;;;;;;;;;;17.50;99.90;;;;;;12297225;28;20606;-33
2022/08/10 06:35:42;;;;;;;3.38;1.67;;;17.70;99.90;;;;;;12274512;28;20378;-34
2022/08/10 06:41:48;;;;;;;3.88;1.33;;;17.70;99.90;;;;;;12302002;28;20055;-33
2022/08/10 06:48:31;;;;;;;4.97;1.65;;;17.80;99.90;;;;;;12283425;28;20047;-37
2022/08/10 06:54:35;;;;;;;3.55;1.33;;;17.90;99.90;;;;;;12276573;28;20541;-38
2022/08/10 07:00:38;;;;;;;;;;;18.20;99.90;;;;;;12282660;28;20462;-34
2022/08/10 07:06:44;;;;;;;5.10;1.67;;;18.40;99.90;;;;;;12282365;28;19923;-34
2022/08/10 07:12:49;;;;;;;3.10;1.40;;;18.60;99.90;;;;;;12305877;28;20553;-34
2022/08/10 07:18:50;;;;;;;8.82;1.60;;;18.80;99.90;;;;;;12335256;28;20470;-38
2022/08/10 07:24:55;;;;;;;2.40;1.23;;;19.00;99.90;;;;;;12332137;28;20093;-34
2022/08/10 07:31:00;;;;;;;7.13;1.65;;;19.10;99.90;;;;;;12334856;28;20058;-38
2022/08/10 07:37:07;;;;;;;4.00;1.27;;;19.20;99.90;;;;;;12332082;28;20082;-37
2022/08/10 07:43:09;;;;;;;2.58;1.27;;;19.30;99.90;;;;;;12344356;28;20082;-38
2022/08/10 07:49:18;;;;;;;7.05;1.83;;;19.60;99.90;;;;;;12330416;28;20478;-39
2022/08/10 07:55:21;;;;;;;8.70;1.42;;;19.70;99.90;;;;;;12322479;28;20055;-37
2022/08/10 08:01:49;;;;;;;6.13;1.42;;;20.00;99.90;;;;;;12323669;28;20051;-34
2022/08/10 08:07:53;;;;;;;2.90;1.20;;;20.00;99.90;;;;;;12320218;28;20077;-39
2022/08/10 08:13:56;;;;;;;3.35;1.40;;;20.20;99.90;;;;;;12322461;28;20098;-37
2022/08/10 08:19:58;;;;;;;5.22;1.33;;;20.50;99.90;;;;;;12328547;28;20546;-37
2022/08/10 08:26:04;;;;;;;6.07;1.30;;;21.00;99.90;;;;;;12326525;28;20503;-37
2022/08/10 08:32:08;;;;;;;3.90;1.65;;;20.90;99.90;;;;;;12315261;28;20063;-34
2022/08/10 08:38:12;;;;;;;3.45;1.40;;;21.00;99.90;;;;;;12328965;28;20116;-38
2022/08/10 08:44:52;;;;;;;5.95;1.30;;;21.50;99.90;;;;;;12328204;28;20073;-34
2022/08/10 08:51:32;;;;;;;3.58;1.45;;;21.80;99.90;;;;;;12334927;28;20055;-34
2022/08/10 08:58:19;;;;;;;8.40;1.92;;;21.80;99.90;;;;;;12316056;28;20078;-34
2022/08/10 09:04:29;;;;;;;4.28;1.50;;;22.20;99.90;;;;;;12328421;28;20105;-38
2022/08/10 09:11:03;;;;;;;5.32;1.45;;;22.20;99.90;;;;;;12333248;28;20461;-38
2022/08/10 09:17:13;;;;;;;;;;;22.50;99.90;;;;;;12329780;28;20112;-34
2022/08/10 09:23:23;;;;;;;7.07;1.50;;;23.00;99.90;;;;;;12337176;28;19980;-39
2022/08/10 09:29:56;;;;;;;7.25;1.67;;;23.10;99.90;;;;;;12345707;28;20070;-38
2022/08/10 09:36:18;;;;;;;4.43;1.70;;;23.50;99.90;;;;;;12328701;28;20058;-34
2022/08/10 09:42:54;;;;;;;3.03;1.30;;;23.60;99.90;;;;;;12347218;28;20039;-37
2022/08/10 09:49:37;;;;;;;4.90;1.30;;;24.00;99.90;;;;;;12332985;28;20054;-39
2022/08/10 09:56:23;;;;;;;5.25;1.30;;;24.00;99.90;;;;;;12325462;28;20047;-40
2022/08/10 10:02:45;;;;;;;3.90;1.52;;;24.10;99.90;;;;;;12330428;28;20058;-41
2022/08/10 10:08:56;;;;;;;2.30;1.10;;;24.20;99.90;;;;;;12342177;28;20046;-34
2022/08/10 10:15:34;;;;;;;5.88;1.50;;;24.40;99.90;;;;;;12336952;28;20503;-38
2022/08/10 10:22:09;;;;;;;6.43;1.30;;;24.70;99.90;;;;;;12336907;28;20105;-38
2022/08/10 10:28:37;;;;;;;3.67;1.20;;;25.00;99.90;;;;;;12296215;28;20047;-37
2022/08/10 10:35:08;;;;;;;3.40;1.30;;;25.20;99.90;;;;;;12335118;28;20057;-38
2022/08/10 10:41:38;;;;;;;4.70;1.27;;;25.40;99.90;;;;;;12336352;28;20054;-34
2022/08/10 10:48:25;;;;;;;2.72;1.40;;;25.50;99.90;;;;;;12336974;28;20063;-38
2022/08/10 10:54:40;;;;;;;2.08;1.30;;;25.60;99.90;;;;;;12313117;28;20460;-38
2022/08/10 11:00:55;;;;;;;3.33;1.52;;;25.80;99.90;;;;;;12329942;28;20055;-34
2022/08/10 11:07:11;;;;;;;3.20;1.70;;;25.90;99.90;;;;;;12341444;28;20474;-34
2022/08/10 11:13:25;;;;;;;5.95;1.50;;;26.00;99.90;;;;;;12336307;28;20066;-38
2022/08/10 11:20:24;;;;;;;5.85;1.63;;;26.10;99.90;;;;;;12337270;28;20058;-34
2022/08/10 11:26:52;;;;;;;4.50;1.52;;;26.40;99.90;;;;;;12331659;28;20423;-34
2022/08/10 11:33:00;;;;;;;6.88;1.80;;;26.50;99.90;;;;;;12338897;28;20059;-38
2022/08/10 11:39:08;;;;;;;6.18;1.67;;;26.70;99.90;;;;;;12340806;28;20487;-34
2022/08/10 11:45:20;;;;;;;5.30;1.50;;;26.80;99.90;;;;;;12336866;28;20054;-38
2022/08/10 11:51:51;;;;;;;5.72;1.50;;;27.00;99.90;;;;;;12331429;28;20063;-38
2022/08/10 12:04:31;;;;;;;4.38;1.40;;;26.60;99.90;;;;;;12334025;28;20054;-35
2022/08/10 12:10:34;;;;;;;4.80;1.30;;;26.80;99.90;;;;;;12324265;28;20146;-39
2022/08/10 12:16:46;;;;;;;5.15;1.10;;;27.00;99.90;;;;;;12321074;28;20051;-38
2022/08/10 12:22:55;;;;;;;3.60;1.55;;;26.80;99.90;;;;;;12328213;28;20194;-38
2022/08/10 12:29:07;;;;;;;4.68;1.40;;;27.10;99.90;;;;;;12341700;28;20057;-34
2022/08/10 12:35:49;;;;;;;5.93;1.20;;;27.40;99.90;;;;;;12320445;28;20090;-38
2022/08/10 12:42:20;;;;;;;2.85;1.60;;;27.70;99.90;;;;;;12316337;28;20133;-39
2022/08/10 12:49:04;;;;;;;2.35;1.20;;;27.30;99.90;;;;;;12342022;28;20054;-34
2022/08/10 12:55:09;;;;;;;4.55;1.20;;;27.70;99.90;;;;;;12335208;28;20077;-39
2022/08/10 13:01:12;;;;;;;3.35;1.23;;;28.00;99.90;;;;;;12335713;28;20101;-34
2022/08/10 13:07:31;;;;;;;3.08;1.13;;;27.80;99.90;;;;;;12347291;28;20047;-38
2022/08/10 13:13:58;;;;;;;2.35;1.33;;;28.00;99.90;;;;;;12342121;28;20062;-34
2022/08/10 13:20:10;;;;;;;3.35;1.58;;;28.10;99.90;;;;;;12342775;28;20545;-34
2022/08/10 13:26:19;;;;;;;4.28;1.40;;;28.00;99.90;;;;;;12337292;28;20114;-39
2022/08/10 13:32:26;;;;;;;3.67;1.13;;;28.50;99.90;;;;;;12344818;28;20062;-39
2022/08/10 13:38:30;;;;;;;8.25;1.65;;;28.20;99.90;;;;;;12340039;28;20059;-40
2022/08/10 13:44:37;;;;;;;2.90;1.05;;;27.70;99.90;;;;;;12326166;28;20112;-34
2022/08/10 13:50:40;;;;;;;3.88;1.00;;;28.00;99.90;;;;;;12342799;28;20102;-39
2022/08/10 13:56:45;;;;;;;5.82;1.38;;;28.00;99.90;;;;;;12344671;28;20181;-38
2022/08/10 14:03:13;;;;;;;4.70;1.40;;;27.90;99.90;;;;;;12337459;28;20423;-39
2022/08/10 14:09:16;;;;;;;6.25;1.40;;;27.70;99.90;;;;;;12335439;28;20543;-38
2022/08/10 14:15:27;;;;;;;4.22;1.40;;;27.80;99.90;;;;;;12336933;28;20058;-35
2022/08/10 14:21:29;;;;;;;3.03;1.15;;;28.10;99.90;;;;;;12341726;28;20059;-39
2022/08/10 14:27:32;;;;;;;4.88;1.35;;;27.90;99.90;;;;;;12340508;28;20086;-38
2022/08/10 14:33:58;;;;;;;2.17;1.20;;;27.80;99.90;;;;;;12346768;28;20047;-39
2022/08/10 14:40:16;;;;;;;4.43;1.20;;;28.00;99.90;;;;;;12335359;28;20107;-39
2022/08/10 14:46:20;;;;;;;4.28;1.30;;;27.70;99.90;;;;;;12313911;28;20511;-38
2022/08/10 14:52:25;;;;;;;7.80;1.50;;;27.50;99.90;;;;;;12336737;28;20050;-34
2022/08/10 14:58:38;;;;;;;3.08;1.63;;;27.40;99.90;;;;;;12337549;28;20053;-35
2022/08/10 15:05:01;;;;;;;2.60;1.30;;;27.30;99.90;;;;;;12336788;28;20073;-38
2022/08/10 15:11:04;;;;;;;2.33;1.20;;;27.70;99.90;;;;;;12340671;28;20538;-38
2022/08/10 15:17:08;;;;;;;3.92;1.40;;;27.60;99.90;;;;;;12339879;28;20190;-34
2022/08/10 15:23:12;;;;;;;5.65;1.20;;;27.40;99.90;;;;;;12330768;28;20504;-39
2022/08/10 15:29:35;;;;;;;3.83;1.13;;;27.60;99.90;;;;;;12326277;28;20055;-39
2022/08/10 15:42:27;;;;;;;4.50;1.20;;;27.40;99.90;;;;;;12334759;28;20062;-36
2022/08/10 15:48:46;;;;;;;3.35;1.13;;;27.40;99.90;;;;;;12324278;28;20161;-34
2022/08/10 15:54:58;;;;;;;4.43;1.40;;;27.20;99.90;;;;;;12322690;28;20461;-34
2022/08/10 16:01:13;;;;;;;2.72;1.20;;;27.30;99.90;;;;;;12330741;28;20090;-39
2022/08/10 16:07:54;;;;;;;3.50;1.10;;;27.40;99.90;;;;;;12331071;28;20568;-34
2022/08/10 16:13:59;;;;;;;3.97;1.40;;;27.50;99.90;;;;;;12314637;28;20047;-38
2022/08/10 16:20:04;;;;;;;4.82;1.23;;;27.50;99.90;;;;;;12326300;28;20058;-38
2022/08/10 16:26:11;;;;;;;2.35;1.23;;;27.50;99.90;;;;;;12331447;28;20082;-38
2022/08/10 16:32:19;;;;;;;2.00;1.20;;;27.40;99.90;;;;;;12342676;28;20055;-34
2022/08/10 16:38:23;;;;;;;2.95;1.10;;;27.80;99.90;;;;;;12322429;28;20109;-38
2022/08/10 16:44:35;;;;;;;7.80;1.13;;;27.50;99.90;;;;;;12328293;28;20495;-39
2022/08/10 16:50:44;;;;;;;3.00;1.10;;;27.20;99.90;;;;;;12314561;28;20051;-34
2022/08/10 16:56:48;;;;;;;2.33;1.00;;;27.80;99.90;;;;;;12320656;28;20047;-40
2022/08/10 17:02:56;;;;;;;1.73;0.90;;;27.60;99.90;;;;;;12323691;28;20051;-35
2022/08/10 17:09:00;;;;;;;7.65;1.10;;;27.20;99.90;;;;;;12321029;28;20050;-38
2022/08/10 17:15:05;;;;;;;1.55;0.85;;;27.20;99.90;;;;;;12319222;28;20183;-34
2022/08/10 17:21:19;;;;;;;6.53;1.20;;;27.10;99.90;;;;;;12322504;28;20051;-38
2022/08/10 17:27:22;;;;;;;4.20;1.20;;;26.90;99.90;;;;;;12328267;28;20059;-34
2022/08/10 17:33:46;;;;;;;3.30;1.23;;;26.90;99.90;;;;;;12318809;28;20151;-34
2022/08/10 17:40:11;;;;;;;11.10;1.58;;;26.90;99.90;;;;;;12353937;28;20418;-34
2022/08/10 17:46:14;;;;;;;1.98;1.00;;;26.80;99.90;;;;;;12343167;28;20051;-34
2022/08/10 17:52:23;;;;;;;3.55;1.00;;;26.80;99.90;;;;;;12342664;28;20058;-34
2022/08/10 17:58:27;;;;;;;6.13;1.05;;;26.70;99.90;;;;;;12337973;28;20055;-38
2022/08/10 18:04:31;;;;;;;4.93;1.10;;;26.70;99.90;;;;;;12347914;28;20133;-40
2022/08/10 18:10:49;;;;;;;4.15;1.10;;;26.30;99.90;;;;;;12335083;28;20047;-37
2022/08/10 18:16:53;;;;;;;1.45;0.90;;;25.90;99.90;;;;;;12331759;28;20118;-34
2022/08/10 18:22:57;;;;;;;3.67;1.17;;;25.70;99.90;;;;;;12341889;28;20055;-38
2022/08/10 18:29:00;;;;;;;7.07;1.17;;;25.40;99.90;;;;;;12341076;28;20055;-39
2022/08/10 18:35:05;;;;;;;6.40;1.20;;;25.10;99.90;;;;;;12338625;28;20063;-34
2022/08/10 18:41:13;;;;;;;3.78;0.95;;;25.00;99.90;;;;;;12339194;28;20066;-34
2022/08/10 18:47:19;;;;;;;2.22;0.90;;;24.90;99.90;;;;;;12352095;28;20051;-38
2022/08/10 18:53:33;;;;;;;2.58;1.20;;;24.80;99.90;;;;;;12337589;28;20058;-34
2022/08/10 19:00:03;;;;;;;6.90;1.10;;;24.60;99.90;;;;;;12326590;28;20051;-38
2022/08/10 19:06:45;;;;;;;3.20;1.00;;;24.50;99.90;;;;;;12335480;28;20063;-38
2022/08/10 19:12:50;;;;;;;22.08;1.98;;;24.40;99.90;;;;;;12332051;28;20124;-34
2022/08/10 19:19:32;;;;;;;6.20;1.80;;;24.30;99.90;;;;;;12332331;28;20113;-38
2022/08/10 19:25:51;;;;;;;2.47;1.20;;;24.20;99.90;;;;;;12329969;28;20047;-34
2022/08/10 19:32:42;;;;;;;58.60;4.00;;;24.20;99.90;;;;;;12334598;28;20051;-34
2022/08/10 19:39:09;;;;;;;12.52;1.40;;;24.20;99.90;;;;;;12325689;28;20110;-38
2022/08/10 19:45:41;;;;;;;1.65;0.93;;;24.00;99.90;;;;;;12325337;28;20047;-34
2022/08/10 19:52:22;;;;;;;5.43;1.20;;;23.90;99.90;;;;;;12327047;28;20051;-37
2022/08/10 19:59:07;;;;;;;2.90;1.17;;;23.70;99.90;;;;;;12329887;28;20129;-39
2022/08/10 20:05:20;;;;;;;5.03;1.40;;;23.60;99.90;;;;;;12321843;28;20132;-37
2022/08/10 20:11:55;;;;;;;5.33;1.33;;;23.50;99.90;;;;;;12314832;28;20886;-33
2022/08/10 20:18:08;;;;;;;8.57;1.27;;;23.20;99.90;;;;;;12337656;28;20557;-38
2022/08/10 20:24:29;;;;;;;4.53;1.30;;;23.00;99.90;;;;;;12340777;28;20182;-37
2022/08/10 20:30:35;;;;;;;3.13;1.23;;;22.90;99.90;;;;;;12332933;28;20125;-37
2022/08/10 20:36:47;;;;;;;4.88;1.13;;;22.70;99.90;;;;;;12327945;28;20051;-37
2022/08/10 20:43:35;;;;;;;3.70;1.30;;;22.70;99.90;;;;;;12327241;28;20038;-37
2022/08/10 20:49:59;;;;;;;6.22;1.55;;;22.40;99.90;;;;;;12324277;28;20180;-34
2022/08/10 20:56:20;;;;;;;8.65;1.30;;;22.30;99.90;;;;;;12329732;28;20566;-34
2022/08/10 21:02:36;;;;;;;2.58;1.35;;;22.20;99.90;;;;;;12329439;28;20458;-37
2022/08/10 21:08:47;;;;;;;4.35;1.40;;;22.20;99.90;;;;;;12333344;28;20047;-33
2022/08/10 21:15:02;;;;;;;3.97;1.30;;;22.00;99.90;;;;;;12341938;28;20138;-33
2022/08/10 21:21:28;;;;;;;3.05;1.30;;;22.00;99.90;;;;;;12340911;28;20058;-38
2022/08/10 22:52:49;;;;;;;5.22;1.30;;;21.60;99.90;;;;;;12336254;28;20047;-37
2022/08/10 22:59:08;;;;;;;4.03;1.33;;;21.60;99.90;;;;;;12330433;28;20055;-33
2022/08/10 23:05:14;;;;;;;4.35;1.30;;;21.50;99.90;;;;;;12333350;28;20051;-37
2022/08/10 23:11:25;;;;;;;3.85;1.52;;;21.50;99.90;;;;;;12336397;28;20475;-33
2022/08/10 23:24:06;;;;;;;4.65;1.70;;;21.40;99.90;;;;;;12322178;28;20074;-33
2022/08/10 23:30:10;;;;;;;4.82;1.40;;;21.30;99.90;;;;;;12332870;28;20059;-34
2022/08/10 23:36:32;;;;;;;3.80;1.48;;;21.20;99.90;;;;;;12333440;28;20129;-38
2022/08/10 23:42:41;;;;;;;2.95;1.42;;;21.10;99.90;;;;;;12338175;28;20486;-37
2022/08/10 23:48:45;;;;;;;3.35;1.30;;;20.90;99.90;;;;;;12334670;28;20050;-37
2022/08/10 23:54:58;;;;;;;6.10;2.42;;;20.80;99.90;;;;;;12334852;28;20495;-38
